Sukkur Weather



Sukkur's Current Weather

Temprature 16o haze

haze

Rain: 0 %

Min Temprature16o
Max Temprature16o
Humidity63
Wind Speed3.1 m/h
Sun Rise07:13:49
Sun Set18:00:12
Current Time: 27-Jan-2020 18:30:57
Lat/Lon: 27.71, 68.86




Sukkur's Geo Location



Sukkur's Weather Forecast

Time Overall Temp Min Temp Max Temp Humidity Wind Speed Rain
27-Jan-2020 (Mon)
20:00:00 clear sky 15.750 15.750 18.210 51 5.21 m/h 0 %
23:00:00 clear sky 15.320 15.320 17.160 51 6.67 m/h 0 %
28-Jan-2020 (Tue)
02:00:00 clear sky 14.700 14.700 15.930 53 6.76 m/h 0 %
05:00:00 clear sky 13.850 13.850 14.460 62 4.23 m/h 0 %
08:00:00 clear sky 13.780 13.780 13.780 65 3.54 m/h 0 %
11:00:00 clear sky 18.540 18.540 18.540 41 4.25 m/h 0 %
14:00:00 clear sky 20.840 20.840 20.840 29 2.45 m/h 0 %
17:00:00 clear sky 21.310 21.310 21.310 23 1.69 m/h 0 %
20:00:00 few clouds 18.450 18.450 18.450 33 0.77 m/h 0 %
23:00:00 clear sky 17.080 17.080 17.080 38 2.22 m/h 0 %
29-Jan-2020 (Wed)
02:00:00 clear sky 15.330 15.330 15.330 47 1.65 m/h 0 %
05:00:00 clear sky 14.120 14.120 14.120 54 1.59 m/h 0 %
08:00:00 clear sky 14.540 14.540 14.540 54 1.1 m/h 0 %
11:00:00 clear sky 19.070 19.070 19.070 37 0.62 m/h 0 %
14:00:00 clear sky 21.900 21.900 21.900 23 2.97 m/h 0 %
17:00:00 clear sky 22.330 22.330 22.330 20 1.16 m/h 0 %
20:00:00 clear sky 19.330 19.330 19.330 26 2.28 m/h 0 %
23:00:00 clear sky 17.370 17.370 17.370 30 2.66 m/h 0 %
30-Jan-2020 (Thu)
02:00:00 clear sky 16.080 16.080 16.080 34 3.04 m/h 0 %
05:00:00 clear sky 14.370 14.370 14.370 38 1.79 m/h 0 %
08:00:00 few clouds 14.330 14.330 14.330 38 3.36 m/h 0 %
11:00:00 clear sky 19.740 19.740 19.740 26 3.34 m/h 0 %
14:00:00 clear sky 22.470 22.470 22.470 21 2.12 m/h 0 %
17:00:00 clear sky 22.850 22.850 22.850 19 1.21 m/h 0 %
20:00:00 clear sky 19.310 19.310 19.310 25 1.79 m/h 0 %
23:00:00 clear sky 18.510 18.510 18.510 26 3.61 m/h 0 %
31-Jan-2020 (Fri)
02:00:00 clear sky 16.230 16.230 16.230 31 2.2 m/h 0 %
05:00:00 clear sky 14.460 14.460 14.460 34 1.45 m/h 0 %
08:00:00 clear sky 15.110 15.110 15.110 32 2.78 m/h 0 %
11:00:00 clear sky 19.800 19.800 19.800 23 2.47 m/h 0 %
14:00:00 clear sky 23.070 23.070 23.070 18 2.78 m/h 0 %
17:00:00 clear sky 23.310 23.310 23.310 17 2.09 m/h 0 %
20:00:00 clear sky 19.030 19.030 19.030 27 4.05 m/h 0 %
23:00:00 clear sky 17.130 17.130 17.130 30 3.06 m/h 0 %
01-Feb-2020 (Sat)
02:00:00 clear sky 15.550 15.550 15.550 31 3.32 m/h 0 %
05:00:00 clear sky 14.100 14.100 14.100 34 2.77 m/h 0 %
08:00:00 clear sky 14.210 14.210 14.210 29 3.01 m/h 0 %
11:00:00 clear sky 19.990 19.990 19.990 24 3.12 m/h 0 %
14:00:00 clear sky 22.850 22.850 22.850 17 0.85 m/h 0 %
17:00:00 clear sky 23.250 23.250 23.250 16 1.77 m/h 0 %

Famous Cities (61)